Akron 1W, Ohio

41° 05' 39"N, 81° 32' 32"W, Elevation 1075 ft.
Eastern Time

Hourly observations for the last 72 hours

Date Time Temperature (°F) Humi-
dity

(%)
Wind
(mph)
Pressure Rain (in)
Air Dew 6 Hour 1 Hr 3 Hr 6 Hr Day
Alt
(in)
Sea
Level

(mb)
Max Min
29 00:00 54.3 52.9 95 S 3 G 10 29.98 1015.3 0.08 0.39
28 23:00 54.0 52.3 94 S 4 G 9 29.97 1014.8 0.11 0.32
28 22:00 54.7 52.4 92 S 5 G 10 30.00 1015.9 0.10 0.21 0.21
28 21:00 56.0 53.4 91 SSW 1 G 5 30.01 1016.3 0.07 0.11
28 20:00 57.9 54.1 87 S 3 G 6 29.98 1015.1 0.04 0.04
28 19:00 59.7 53.2 62.3 59.6 79 WNW 1 G 2 30.07 1018.3 0.00
28 18:00 60.2 53.0 77 ENE 1 G 3 29.99 1015.6 0.00
28 17:00 60.3 53.1 77 NNE 2 G 5 30.02 1016.6 0.00
28 16:00 62.1 52.6 71 SW 1 G 4 30.03 1016.9 0.00
28 15:00 61.4 51.9 71 SW 0 G 2 30.01 1016.3 0.00
28 14:00 62.2 50.7 66 SSE 2 G 5 30.01 1016.3 0.00
28 13:00 61.3 49.0 61.4 48.3 64 S 3 G 9 30.03 1017.1 0.00
28 12:00 60.7 49.7 67 SW 5 G 7 30.02 1016.5 0.00
28 11:00 59.7 47.9 65 WSW 4 G 13 30.03 1017.0 0.00
28 10:00 57.6 47.1 68 SW 4 G 9 30.03 1017.1 0.00
28 09:00 54.9 46.1 72 S 6 G 12 30.02 1016.8 0.00
28 08:00 52.4 44.0 73 SW 2 G 8 30.03 1016.9 0.00
28 07:00 48.3 44.0 49.5 45.6 85 SW 2 G 8 30.00 1016.1 0.00
28 06:00 45.6 42.8 90 SSW 1 G 3 30.00 1016.0 0.00
28 05:00 46.9 43.2 87 SW 0 G 2 29.97 1015.0 0.00
28 04:00 47.5 44.1 88 SW 2 G 5 29.95 1014.2 0.00
28 03:00 47.5 44.1 88 Calm 29.92 1013.2 0.00
28 02:00 47.7 44.0 87 WSW 0 G 1 29.92 1013.2 0.00
28 01:00 49.5 44.6 65.8 49.5 83 WSW 0 G 1 29.88 1011.9 0.00
28 00:00 51.8 45.2 78 WSW 1 G 4 29.85 1011.0 0.19
27 23:00 53.9 46.2 75 W 2 G 5 29.84 1010.4 0.19
27 22:00 56.7 48.1 73 W 3 G 8 29.79 1009.0 0.19
27 21:00 59.5 50.1 71 W 2 G 3 29.75 1007.7 0.19
27 20:00 62.4 51.3 67 WNW 2 G 9 29.71 1006.2 0.19
27 19:00 65.8 54.5 74.6 63.5 67 WSW 2 G 11 29.67 1004.9 0.19 0.19
27 18:00 68.0 58.3 71 W 2 G 10 29.64 1003.7 0.19
27 17:00 69.0 58.4 69 W 6 G 13 29.61 1002.7 0.19
27 16:00 69.3 63.6 82 SW 4 G 11 29.57 1001.4 0.01 0.19 0.19
27 15:00 64.5 58.9 82 WSW 1 G 19 29.58 1001.6 0.18 0.18
27 14:00 73.1 59.3 62 SSW 5 G 19 29.56 1000.9 0.00
27 13:00 74.6 58.9 78.5 66.4 58 SSW 8 G 18 29.56 1000.9 0.00
27 12:00 77.7 58.7 52 SSW 7 G 24 29.55 1000.6 0.00
27 11:00 75.6 61.2 61 S 4 G 17 29.57 1001.3 0.00
27 10:00 73.9 61.0 64 SSW 2 G 20 29.59 1001.9 0.00
27 09:00 71.3 60.2 68 SSW 5 G 13 29.58 1001.6 0.00
27 08:00 68.9 59.5 72 S 4 G 12 29.59 1002.2 0.00
27 07:00 66.4 58.2 66.8 63.8 75 S 3 G 8 29.60 1002.6 0.00
27 06:00 65.6 57.1 74 S 4 G 7 29.60 1002.6 0.00
27 05:00 66.4 56.7 71 S 3 G 13 29.59 1002.1 0.00
27 04:00 66.7 56.6 70 SSE 4 G 10 29.58 1001.6 0.00
27 03:00 64.1 55.3 73 S 2 G 7 29.59 1002.0 0.00
27 02:00 64.3 55.5 73 SSE 2 G 6 29.59 1002.2 0.00
27 01:00 66.1 55.6 77.4 64.4 69 SSE 1 G 7 29.60 1002.3 0.00
27 00:00 64.5 55.3 72 S 1 G 5 29.61 1002.8 0.00
26 23:00 65.6 55.6 70 Calm 29.61 1002.9 0.00
26 22:00 67.5 55.8 66 S 0 G 4 29.63 1003.3 0.00
26 21:00 71.2 56.6 60 SSW 0 G 3 29.62 1003.0 0.00
26 20:00 74.5 56.8 54 SSE 2 G 6 29.60 1002.5 0.00
26 19:00 77.4 57.3 81.9 74.9 50 S 3 G 9 29.59 1002.1 0.00
26 18:00 80.7 58.6 47 S 5 G 11 29.60 1002.3 0.00
26 17:00 81.8 59.0 46 SSW 6 G 11 29.59 1002.2 0.00
26 16:00 80.1 59.8 50 S 5 G 12 29.59 1002.2 0.00
26 15:00 79.1 61.1 54 SSW 3 G 17 29.62 1002.9 0.00
26 14:00 76.6 61.2 59 S 6 G 13 29.65 1004.0 0.00
26 13:00 74.9 61.0 75.0 54.6 62 S 3 G 12 29.66 1004.4 0.00
26 12:00 74.2 61.7 65 SSE 4 G 12 29.68 1005.1 0.00
26 11:00 70.8 59.7 68 S 4 G 8 29.72 1006.5 0.00
26 10:00 68.3 58.5 71 SSE 2 G 7 29.74 1007.1 0.00
26 09:00 65.7 56.8 73 SW 4 G 7 29.74 1007.2 0.00
26 08:00 60.4 55.2 83 S 2 G 6 29.76 1007.8 0.00
26 07:00 54.6 52.6 57.6 53.5 93 SSW 3 G 6 29.76 1007.9 0.00
26 06:00 53.5 51.5 93 SE 2 G 5 29.75 1007.3 0.00
26 05:00 54.1 52.1 93 S 4 G 8 29.73 1006.8 0.00
26 04:00 54.5 52.2 92 SE 2 G 6 29.72 1006.6 0.00
26 03:00 55.2 52.6 91 SE 2 G 5 29.73 1006.8 0.00
26 02:00 56.1 52.9 89 SE 0 G 4 29.74 1007.2 0.00
26 01:00 57.6 53.4 66.1 57.6 86 SE 1 G 7 29.74 1007.3 0.00

Data generated by WxSolution Version 1.9.0.7, Build 2017.01.19.